Time;durP1;ratioP1;P1;durP2;ratioP2;P2;SDS_P1;SDS_P2;PMS_P1;PMS_P2;Temp;Humidity;BMP_temperature;BMP_pressure;BME280_temperature;BME280_humidity;BME280_pressure;Samples;Min_cycle;Max_cycle;Signal;HPM_P1;HPM_P2
2023/06/30 00:01:50;;;;;;;1.50;1.00;;;19.00;98.20;;;;;;4972686;28;20493;-84
2023/06/30 00:04:17;;;;;;;1.97;1.77;;;18.90;98.20;;;;;;4973805;28;20529;-83
2023/06/30 00:06:45;;;;;;;1.50;0.97;;;18.90;98.20;;;;;;4974908;28;20489;-82
2023/06/30 00:09:11;;;;;;;1.50;0.90;;;18.80;98.20;;;;;;4967804;28;20475;-83
2023/06/30 00:11:40;;;;;;;1.50;0.90;;;18.80;98.20;;;;;;4986867;28;20533;-82
2023/06/30 00:14:06;;;;;;;1.50;0.90;;;18.70;98.20;;;;;;4986644;28;20466;-83
2023/06/30 00:16:35;;;;;;;1.50;0.90;;;18.60;98.20;;;;;;4972212;28;20552;-83
2023/06/30 00:19:02;;;;;;;1.50;0.90;;;18.60;98.20;;;;;;4975530;28;20467;-83
2023/06/30 00:21:29;;;;;;;1.50;1.00;;;18.60;98.20;;;;;;4970726;28;20473;-83
2023/06/30 00:24:01;;;;;;;1.50;1.00;;;18.60;98.20;;;;;;4972388;28;20568;-84
2023/06/30 00:26:34;;;;;;;1.50;0.90;;;18.60;98.20;;;;;;4971695;28;20874;-85
2023/06/30 00:29:07;;;;;;;1.50;0.90;;;18.50;98.20;;;;;;4970078;28;20567;-84
2023/06/30 00:36:57;;;;;;;1.50;0.90;;;18.40;98.20;;;;;;4972537;28;20493;-83
2023/06/30 00:39:26;;;;;;;1.50;0.90;;;18.30;98.20;;;;;;4971361;28;20521;-85
2023/06/30 00:41:53;;;;;;;1.50;0.90;;;18.30;98.20;;;;;;4973508;28;20466;-83
2023/06/30 00:44:20;;;;;;;1.50;0.90;;;18.30;98.20;;;;;;4973428;28;20468;-83
2023/06/30 00:46:48;;;;;;;1.50;0.90;;;18.30;98.20;;;;;;4972280;28;20554;-84
2023/06/30 00:49:15;;;;;;;1.50;0.90;;;18.30;98.20;;;;;;4969157;28;20476;-83
2023/06/30 00:51:42;;;;;;;1.43;0.90;;;18.30;98.20;;;;;;4973888;28;20462;-84
2023/06/30 00:54:10;;;;;;;1.50;1.00;;;18.30;98.20;;;;;;4972767;28;20529;-84
2023/06/30 00:56:36;;;;;;;1.50;0.90;;;18.20;98.20;;;;;;4972041;28;20588;-84
2023/06/30 00:59:03;;;;;;;1.50;0.90;;;18.10;98.20;;;;;;4974427;28;20469;-83
2023/06/30 01:01:35;;;;;;;1.50;0.93;;;18.00;98.20;;;;;;4970917;28;20466;-83
2023/06/30 01:04:10;;;;;;;1.50;0.90;;;17.90;98.20;;;;;;4972695;28;20889;-82
2023/06/30 01:06:45;;;;;;;1.50;0.90;;;17.90;98.20;;;;;;4973350;28;20497;-83
2023/06/30 01:09:17;;;;;;;1.50;0.90;;;17.90;98.20;;;;;;4976590;28;21027;-82
2023/06/30 01:11:44;;;;;;;1.50;0.90;;;17.90;98.20;;;;;;4972300;28;20466;-84
2023/06/30 01:14:12;;;;;;;1.50;1.00;;;17.90;98.20;;;;;;4972972;28;20457;-82
2023/06/30 01:16:42;;;;;;;1.50;1.00;;;17.90;98.20;;;;;;4973854;28;20544;-83
2023/06/30 01:19:25;;;;;;;1.50;1.00;;;17.90;98.20;;;;;;4973622;28;20466;-82
2023/06/30 01:21:55;;;;;;;1.50;0.90;;;17.90;98.20;;;;;;4976667;28;20508;-81
2023/06/30 01:24:25;;;;;;;1.50;0.90;;;17.80;98.20;;;;;;4973837;28;20462;-81
2023/06/30 01:26:53;;;;;;;1.50;0.90;;;17.70;98.20;;;;;;4973623;28;20483;-81
2023/06/30 01:29:20;;;;;;;1.50;0.93;;;17.70;98.20;;;;;;4974716;28;20477;-82
2023/06/30 01:31:47;;;;;;;1.50;1.00;;;17.70;98.20;;;;;;4980927;28;20957;-82
2023/06/30 01:34:16;;;;;;;1.50;0.90;;;17.70;98.20;;;;;;4976293;28;20465;-82
2023/06/30 01:36:45;;;;;;;1.50;0.90;;;17.60;98.20;;;;;;4982334;28;20568;-82
2023/06/30 01:39:12;;;;;;;1.50;0.90;;;17.60;98.20;;;;;;4977984;28;21119;-82
2023/06/30 01:41:39;;;;;;;1.50;0.90;;;17.60;98.20;;;;;;4976564;28;20468;-81
2023/06/30 01:44:06;;;;;;;1.50;0.90;;;17.60;98.20;;;;;;4980763;28;20541;-82
2023/06/30 01:46:33;;;;;;;1.50;1.00;;;17.50;98.20;;;;;;4979401;28;20499;-82
2023/06/30 01:49:00;;;;;;;1.50;1.00;;;17.50;98.20;;;;;;4980875;28;20468;-82
2023/06/30 01:51:28;;;;;;;1.50;1.00;;;17.50;98.20;;;;;;4978020;28;20466;-82
2023/06/30 01:53:55;;;;;;;1.50;0.90;;;17.40;98.20;;;;;;4975003;28;20461;-83
2023/06/30 01:56:22;;;;;;;1.50;0.93;;;17.30;98.20;;;;;;4979018;28;20466;-82
2023/06/30 01:58:49;;;;;;;1.50;1.00;;;17.30;98.20;;;;;;4974837;28;20979;-82
2023/06/30 02:01:16;;;;;;;1.50;0.90;;;17.30;98.20;;;;;;4971592;28;20705;-82
2023/06/30 02:03:42;;;;;;;1.50;1.10;;;17.30;98.20;;;;;;4977743;28;20494;-81
2023/06/30 02:06:10;;;;;;;1.50;0.90;;;17.30;98.20;;;;;;4978647;28;20489;-81
2023/06/30 02:08:38;;;;;;;1.50;1.00;;;17.30;98.20;;;;;;4974746;28;20544;-81
2023/06/30 02:11:05;;;;;;;1.50;1.00;;;17.20;98.20;;;;;;4976402;28;20606;-81
2023/06/30 02:13:31;;;;;;;1.50;1.00;;;17.20;98.20;;;;;;4977442;28;20466;-80
2023/06/30 02:15:58;;;;;;;1.50;1.00;;;17.20;98.20;;;;;;4978982;28;20462;-81
2023/06/30 02:18:25;;;;;;;1.50;1.00;;;17.20;98.20;;;;;;4976507;28;20481;-83
2023/06/30 02:20:52;;;;;;;1.50;0.90;;;17.20;98.20;;;;;;4978019;28;20480;-82
2023/06/30 02:23:18;;;;;;;1.50;1.00;;;17.20;98.20;;;;;;4971452;28;20462;-82
2023/06/30 02:25:47;;;;;;;1.50;0.90;;;17.20;98.20;;;;;;4980033;28;20500;-82
2023/06/30 02:28:13;;;;;;;1.50;0.90;;;17.20;98.20;;;;;;4978515;28;20482;-81
2023/06/30 02:30:40;;;;;;;1.50;0.90;;;17.20;98.20;;;;;;4976535;28;20469;-82
2023/06/30 02:33:07;;;;;;;1.50;0.90;;;17.20;98.20;;;;;;4977684;28;20477;-83
2023/06/30 02:35:34;;;;;;;1.50;1.00;;;17.10;98.20;;;;;;4977194;28;20454;-83
2023/06/30 02:38:00;;;;;;;1.50;1.10;;;17.10;98.20;;;;;;4978710;28;20572;-82
2023/06/30 02:40:29;;;;;;;1.50;1.00;;;17.10;98.20;;;;;;4976577;28;20470;-82
2023/06/30 02:42:57;;;;;;;1.50;0.90;;;17.10;98.20;;;;;;4977647;28;20489;-82
2023/06/30 02:45:24;;;;;;;1.50;0.90;;;17.20;98.20;;;;;;4975448;28;21022;-82
2023/06/30 02:47:51;;;;;;;2.07;1.30;;;17.20;98.20;;;;;;4973229;28;20564;-83
2023/06/30 02:50:18;;;;;;;1.50;1.00;;;17.20;98.20;;;;;;4977120;28;20831;-83
2023/06/30 02:52:45;;;;;;;1.47;0.97;;;17.20;98.20;;;;;;4978210;28;20469;-83
2023/06/30 02:55:12;;;;;;;1.50;0.90;;;17.30;98.20;;;;;;4977539;28;20467;-82
2023/06/30 02:57:39;;;;;;;1.50;0.90;;;17.30;98.20;;;;;;4975928;28;20532;-83
2023/06/30 03:00:09;;;;;;;1.50;0.90;;;17.30;98.20;;;;;;4978332;28;20545;-82
2023/06/30 03:02:36;;;;;;;1.50;1.00;;;17.20;98.20;;;;;;4977211;28;20708;-82
2023/06/30 03:05:04;;;;;;;1.50;0.90;;;17.20;98.20;;;;;;4980159;28;20483;-82
2023/06/30 03:07:31;;;;;;;1.50;1.00;;;17.20;98.20;;;;;;4978649;28;20872;-83
2023/06/30 03:09:58;;;;;;;1.50;0.90;;;17.20;98.20;;;;;;4978599;28;20470;-83
2023/06/30 03:12:25;;;;;;;1.50;1.00;;;17.10;98.20;;;;;;4978530;28;20466;-82
2023/06/30 03:14:52;;;;;;;1.50;0.90;;;17.10;98.20;;;;;;4980511;28;20589;-83
2023/06/30 03:17:20;;;;;;;1.50;1.00;;;17.20;98.20;;;;;;4974739;28;20988;-82
2023/06/30 03:19:49;;;;;;;1.50;1.00;;;17.20;98.20;;;;;;4976195;28;20466;-83
2023/06/30 03:22:15;;;;;;;1.50;0.90;;;17.30;98.20;;;;;;4978086;28;20508;-82
2023/06/30 03:24:42;;;;;;;1.50;0.90;;;17.30;98.20;;;;;;4977359;28;20464;-83
2023/06/30 03:27:09;;;;;;;1.50;1.00;;;17.30;98.20;;;;;;4980648;28;20489;-83
2023/06/30 03:29:36;;;;;;;1.50;1.00;;;17.20;98.20;;;;;;4978355;28;20875;-81
2023/06/30 03:32:02;;;;;;;1.50;0.90;;;17.20;98.20;;;;;;4978252;28;20503;-82
2023/06/30 03:34:31;;;;;;;1.50;1.00;;;17.20;98.20;;;;;;4977941;28;20476;-82
2023/06/30 03:36:58;;;;;;;1.50;1.00;;;17.10;98.20;;;;;;4980200;28;20492;-83
2023/06/30 03:39:44;;;;;;;;;;;;;;;;;;;;;
2023/06/30 03:42:14;;;;;;;1.50;0.90;;;17.10;98.20;;;;;;4962484;28;20472;-83
2023/06/30 03:44:41;;;;;;;1.50;0.90;;;17.10;98.20;;;;;;4961958;28;20486;-83
2023/06/30 03:47:11;;;;;;;1.50;0.90;;;17.10;98.20;;;;;;4965216;28;20517;-83
2023/06/30 03:49:39;;;;;;;1.50;0.90;;;17.10;98.20;;;;;;4973236;28;20935;-84
2023/06/30 03:52:07;;;;;;;1.50;1.00;;;17.10;98.20;;;;;;4968399;28;20466;-84
2023/06/30 03:54:43;;;;;;;1.50;0.90;;;17.10;98.20;;;;;;4964394;28;20503;-84
2023/06/30 03:57:10;;;;;;;1.50;0.90;;;17.10;98.20;;;;;;4964414;28;20489;-85
2023/06/30 03:59:37;;;;;;;1.50;0.90;;;17.10;98.20;;;;;;4971136;28;20505;-84
2023/06/30 04:02:16;;;;;;;1.50;0.90;;;17.10;98.20;;;;;;4968754;28;20472;-85
2023/06/30 04:04:47;;;;;;;1.50;0.93;;;17.10;98.20;;;;;;4968869;28;21037;-85
2023/06/30 04:07:13;;;;;;;1.50;1.10;;;17.00;98.20;;;;;;4971006;28;20518;-84
2023/06/30 04:09:40;;;;;;;1.50;1.00;;;17.00;98.20;;;;;;4972914;28;20469;-85
2023/06/30 04:12:08;;;;;;;1.50;0.90;;;17.00;98.20;;;;;;4975524;28;20540;-84
2023/06/30 04:14:35;;;;;;;1.50;0.97;;;17.10;98.20;;;;;;4974609;28;20466;-85
2023/06/30 04:17:02;;;;;;;1.50;1.00;;;17.10;98.20;;;;;;4975599;28;20596;-85
2023/06/30 04:19:29;;;;;;;1.50;1.00;;;17.10;98.20;;;;;;4976660;28;20493;-85
2023/06/30 04:22:29;;;;;;;1.50;0.90;;;17.20;98.20;;;;;;4976930;28;20956;-85
2023/06/30 04:24:57;;;;;;;1.50;1.00;;;17.20;98.20;;;;;;4968210;28;21037;-84
2023/06/30 04:27:24;;;;;;;1.43;0.90;;;17.20;98.20;;;;;;4979453;28;20548;-85
2023/06/30 04:29:51;;;;;;;1.50;1.00;;;17.20;98.20;;;;;;4971751;28;20493;-85
2023/06/30 04:32:19;;;;;;;1.50;1.00;;;17.20;98.20;;;;;;4973789;28;20477;-85
2023/06/30 04:34:49;;;;;;;1.50;0.90;;;17.20;98.20;;;;;;4974686;28;20474;-85
2023/06/30 04:37:21;;;;;;;1.50;0.90;;;17.10;98.20;;;;;;4988139;28;20515;-85
2023/06/30 04:39:50;;;;;;;1.50;0.90;;;17.10;98.20;;;;;;4992603;28;20462;-85
2023/06/30 04:42:18;;;;;;;1.60;1.20;;;17.10;98.20;;;;;;4973255;28;20469;-85
2023/06/30 04:44:48;;;;;;;1.50;0.90;;;17.10;98.20;;;;;;4972550;28;20492;-85
2023/06/30 04:47:16;;;;;;;1.50;0.93;;;17.10;98.20;;;;;;4972726;28;21072;-85
2023/06/30 04:49:43;;;;;;;1.50;1.00;;;17.10;98.20;;;;;;4973947;28;20467;-85
2023/06/30 04:52:11;;;;;;;1.50;0.90;;;17.20;98.20;;;;;;4973584;28;20492;-85
2023/06/30 04:54:38;;;;;;;1.50;0.93;;;17.20;98.20;;;;;;4970461;28;20472;-85
2023/06/30 04:57:08;;;;;;;1.50;1.00;;;17.20;98.20;;;;;;4973918;28;20573;-85
2023/06/30 04:59:39;;;;;;;1.50;0.90;;;17.20;98.20;;;;;;4979440;28;20485;-85
2023/06/30 05:02:13;;;;;;;1.50;1.00;;;17.30;98.20;;;;;;4977351;28;20580;-85
2023/06/30 05:04:41;;;;;;;1.50;0.93;;;17.30;98.20;;;;;;4978427;28;20493;-85
2023/06/30 05:07:09;;;;;;;1.50;0.93;;;17.40;98.20;;;;;;4972103;28;20505;-85
2023/06/30 05:09:37;;;;;;;1.50;0.90;;;17.40;98.20;;;;;;4971545;28;20805;-85
2023/06/30 05:12:04;;;;;;;1.50;0.90;;;17.40;98.20;;;;;;4969133;28;20474;-84
2023/06/30 05:14:33;;;;;;;1.50;0.90;;;17.40;98.20;;;;;;4974701;28;20505;-85
2023/06/30 05:17:02;;;;;;;1.50;0.90;;;17.40;98.20;;;;;;4972914;28;20560;-84
2023/06/30 05:19:31;;;;;;;1.50;0.90;;;17.40;98.20;;;;;;4973866;28;21010;-85
2023/06/30 05:22:48;;;;;;;1.50;1.00;;;17.50;98.20;;;;;;4971127;28;20541;-85
2023/06/30 05:25:18;;;;;;;1.50;0.93;;;17.60;98.20;;;;;;4971421;28;20515;-84
2023/06/30 05:27:46;;;;;;;1.50;0.97;;;17.70;98.20;;;;;;4969394;28;20522;-84
2023/06/30 05:30:14;;;;;;;1.50;1.00;;;17.70;98.20;;;;;;4968164;28;20771;-84
2023/06/30 05:32:46;;;;;;;1.50;0.90;;;17.70;98.20;;;;;;4969331;28;20545;-85
2023/06/30 05:35:15;;;;;;;1.50;0.93;;;17.70;98.20;;;;;;4969997;28;20508;-84
2023/06/30 05:37:43;;;;;;;1.50;1.00;;;17.60;98.20;;;;;;4969962;28;20478;-84
2023/06/30 05:41:07;;;;;;;1.50;0.90;;;17.60;98.20;;;;;;4971821;28;20540;-84
2023/06/30 05:43:34;;;;;;;1.50;1.00;;;17.60;98.20;;;;;;4956511;28;20481;-85
2023/06/30 05:46:03;;;;;;;1.50;0.90;;;17.60;98.20;;;;;;4975633;28;21088;-84
2023/06/30 05:48:34;;;;;;;1.47;0.90;;;17.60;98.20;;;;;;4969389;28;20501;-84
2023/06/30 05:51:04;;;;;;;1.50;0.93;;;17.70;98.20;;;;;;4972466;28;21023;-85
2023/06/30 05:53:39;;;;;;;1.50;0.90;;;17.70;98.20;;;;;;4974882;28;20465;-85
2023/06/30 05:56:07;;;;;;;1.50;0.90;;;17.80;98.20;;;;;;4973780;28;20473;-84
2023/06/30 05:58:37;;;;;;;1.50;1.00;;;17.80;98.20;;;;;;4968475;28;20532;-84
2023/06/30 06:01:13;;;;;;;1.50;0.97;;;17.80;98.20;;;;;;4969851;28;21027;-84
2023/06/30 06:04:00;;;;;;;1.50;1.00;;;17.70;98.20;;;;;;4970468;28;20548;-85
2023/06/30 06:06:32;;;;;;;1.50;1.00;;;17.80;98.20;;;;;;4970245;28;20482;-84
2023/06/30 06:09:01;;;;;;;1.50;0.93;;;17.90;98.20;;;;;;4969195;28;20469;-85
2023/06/30 06:11:32;;;;;;;1.50;0.90;;;18.10;98.20;;;;;;4970484;28;20563;-84
2023/06/30 06:14:04;;;;;;;1.50;0.93;;;18.10;98.20;;;;;;4968421;28;20968;-84
2023/06/30 06:16:31;;;;;;;1.50;0.90;;;18.20;98.20;;;;;;4968147;28;20473;-86
2023/06/30 06:19:00;;;;;;;1.50;0.90;;;18.40;98.20;;;;;;4969733;28;20472;-85
2023/06/30 06:24:45;;;;;;;1.50;0.93;;;18.70;98.20;;;;;;4943754;28;21028;-85
2023/06/30 06:27:16;;;;;;;1.50;0.90;;;18.80;98.20;;;;;;4969780;28;20544;-84
2023/06/30 06:32:34;;;;;;;1.50;1.00;;;19.00;98.20;;;;;;4969542;28;20608;-83
2023/06/30 06:35:05;;;;;;;1.50;0.90;;;19.10;98.20;;;;;;4972840;28;20640;-84
2023/06/30 06:37:33;;;;;;;1.50;0.90;;;19.10;98.20;;;;;;4970044;28;20489;-83
2023/06/30 06:40:04;;;;;;;1.50;0.90;;;19.00;98.20;;;;;;4961707;28;20783;-83
2023/06/30 06:43:00;;;;;;;1.50;1.00;;;18.90;98.20;;;;;;4971931;28;20519;-84
2023/06/30 06:45:31;;;;;;;1.50;0.90;;;18.90;98.20;;;;;;4968451;28;20525;-83
2023/06/30 06:48:19;;;;;;;1.50;0.90;;;19.00;98.20;;;;;;4968731;28;20931;-85
2023/06/30 06:50:49;;;;;;;1.50;0.90;;;19.10;98.20;;;;;;4982028;28;20835;-85
2023/06/30 06:53:27;;;;;;;1.50;0.97;;;19.20;98.20;;;;;;4986032;28;20444;-84
2023/06/30 06:55:56;;;;;;;1.50;0.90;;;19.40;98.20;;;;;;4971143;28;20947;-84
2023/06/30 06:58:28;;;;;;;1.50;1.00;;;19.50;98.20;;;;;;4966214;28;20716;-84
2023/06/30 07:01:13;;;;;;;1.50;1.00;;;19.60;98.20;;;;;;4969385;28;20526;-83
2023/06/30 07:03:40;;;;;;;1.50;0.90;;;19.60;98.20;;;;;;4967407;28;20476;-83
2023/06/30 07:06:12;;;;;;;1.50;0.90;;;19.60;98.20;;;;;;4967857;28;20473;-84
2023/06/30 07:08:39;;;;;;;1.50;0.90;;;19.80;98.20;;;;;;4966673;28;20631;-83
2023/06/30 07:11:08;;;;;;;1.50;0.90;;;19.90;98.20;;;;;;4970307;28;20485;-84
2023/06/30 07:13:35;;;;;;;1.50;0.90;;;19.90;98.20;;;;;;4965478;28;20466;-83
2023/06/30 07:16:02;;;;;;;1.50;0.90;;;20.10;98.20;;;;;;4971810;28;20519;-84
2023/06/30 07:18:30;;;;;;;1.50;0.90;;;20.20;98.20;;;;;;4968283;28;20486;-84
2023/06/30 07:24:43;;;;;;;1.50;0.90;;;20.70;98.20;;;;;;4948619;28;20485;-83
2023/06/30 07:27:10;;;;;;;1.50;0.90;;;21.00;97.60;;;;;;4967931;28;20588;-84
2023/06/30 07:29:38;;;;;;;1.50;0.90;;;21.10;98.20;;;;;;4968655;28;20470;-85
2023/06/30 07:32:13;;;;;;;1.50;0.90;;;21.30;97.00;;;;;;4964674;28;20476;-84
2023/06/30 07:34:40;;;;;;;1.50;0.90;;;21.50;95.90;;;;;;4967621;28;20504;-83
2023/06/30 07:37:07;;;;;;;1.53;0.90;;;21.70;94.60;;;;;;4967567;28;20524;-86
2023/06/30 07:39:35;;;;;;;1.50;0.90;;;21.80;92.40;;;;;;4970912;28;20478;-84
2023/06/30 07:42:04;;;;;;;1.53;0.90;;;21.80;91.30;;;;;;4974261;28;20498;-84
2023/06/30 07:44:36;;;;;;;1.50;0.90;;;21.90;90.50;;;;;;4972505;28;20820;-84
2023/06/30 07:47:03;;;;;;;1.50;0.90;;;22.10;90.30;;;;;;4973764;28;20844;-84
2023/06/30 07:49:30;;;;;;;1.50;0.90;;;22.30;88.40;;;;;;4974427;28;20469;-84
2023/06/30 07:51:58;;;;;;;1.50;0.90;;;22.40;90.40;;;;;;4977482;28;21393;-83
2023/06/30 07:54:34;;;;;;;1.50;0.90;;;22.30;87.20;;;;;;4977955;28;20502;-82
2023/06/30 07:57:03;;;;;;;1.50;0.90;;;22.20;86.60;;;;;;4978513;28;20542;-83
2023/06/30 08:02:50;;;;;;;1.50;0.90;;;22.40;88.20;;;;;;4975013;28;20547;-83
2023/06/30 08:05:21;;;;;;;1.50;0.90;;;22.40;85.70;;;;;;4980963;28;20468;-83
2023/06/30 08:07:51;;;;;;;1.50;0.90;;;22.50;85.00;;;;;;4978479;28;20756;-85
2023/06/30 08:10:23;;;;;;;1.47;0.90;;;22.60;84.10;;;;;;4988946;28;20859;-84
2023/06/30 08:13:02;;;;;;;1.50;0.90;;;22.60;84.70;;;;;;4981603;28;20564;-83
2023/06/30 08:15:29;;;;;;;1.47;0.90;;;22.80;85.20;;;;;;4933930;28;20503;-84
2023/06/30 08:18:00;;;;;;;1.47;0.80;;;22.90;86.00;;;;;;4977464;28;20478;-83
2023/06/30 08:20:46;;;;;;;1.50;0.90;;;23.00;85.10;;;;;;4980648;28;20489;-85
2023/06/30 08:23:14;;;;;;;1.50;0.90;;;23.30;85.20;;;;;;4977273;28;20889;-85
2023/06/30 08:25:41;;;;;;;1.50;0.80;;;23.60;85.00;;;;;;4982128;28;20481;-86
2023/06/30 08:28:13;;;;;;;1.50;0.80;;;23.80;83.70;;;;;;4977747;28;20520;-87
2023/06/30 08:30:41;;;;;;;1.50;0.90;;;24.00;84.10;;;;;;4978737;28;20971;-82
2023/06/30 08:33:11;;;;;;;1.50;0.90;;;24.00;81.40;;;;;;4972981;28;20458;-84
2023/06/30 08:35:42;;;;;;;1.50;0.90;;;24.10;83.20;;;;;;4980219;28;20913;-83
2023/06/30 08:38:18;;;;;;;1.50;0.90;;;24.20;80.40;;;;;;4972143;28;20564;-84
2023/06/30 08:41:04;;;;;;;1.43;0.80;;;24.30;78.70;;;;;;4977905;28;20466;-86
2023/06/30 08:43:36;;;;;;;1.50;0.80;;;24.30;79.20;;;;;;4978964;28;20466;-85
2023/06/30 08:46:18;;;;;;;1.50;1.20;;;24.30;78.90;;;;;;4979406;28;20464;-83
2023/06/30 08:48:47;;;;;;;1.50;0.80;;;24.50;78.50;;;;;;4984024;28;20832;-83
2023/06/30 08:51:15;;;;;;;1.50;0.80;;;24.70;77.60;;;;;;4981493;28;20460;-84
2023/06/30 08:53:43;;;;;;;1.50;0.90;;;24.80;77.80;;;;;;4973800;28;20469;-84
2023/06/30 08:56:18;;;;;;;1.47;0.80;;;24.90;78.80;;;;;;4973616;28;20457;-85
2023/06/30 08:58:50;;;;;;;1.47;0.80;;;24.90;76.90;;;;;;4966696;28;20880;-83
2023/06/30 09:01:23;;;;;;;1.50;0.80;;;25.10;77.20;;;;;;4976417;28;20462;-84
2023/06/30 09:03:52;;;;;;;1.40;0.80;;;25.20;78.00;;;;;;4982374;28;20529;-86
2023/06/30 09:08:57;;;;;;;1.47;0.80;;;25.10;76.50;;;;;;5153997;23;20495;-82
2023/06/30 09:11:29;;;;;;;1.47;0.80;;;25.30;78.20;;;;;;4988953;28;20515;-84
2023/06/30 09:14:10;;;;;;;1.40;0.80;;;25.30;77.90;;;;;;4988256;28;20494;-86
2023/06/30 09:16:40;;;;;;;1.50;0.90;;;25.60;77.80;;;;;;4985895;28;20464;-86
2023/06/30 09:19:08;;;;;;;1.50;0.80;;;25.60;78.30;;;;;;4977697;28;20466;-86
2023/06/30 09:21:37;;;;;;;1.50;0.87;;;25.40;75.90;;;;;;4978892;28;20480;-85
2023/06/30 09:24:24;;;;;;;1.50;0.80;;;25.30;76.40;;;;;;4975517;28;20464;-85
2023/06/30 09:27:36;;;;;;;1.43;0.80;;;25.40;76.90;;;;;;4983137;23;20971;-86
2023/06/30 09:30:09;;;;;;;1.43;0.80;;;25.60;77.90;;;;;;4947733;28;20470;-86
2023/06/30 09:32:54;;;;;;;1.50;0.90;;;25.80;76.00;;;;;;4972535;28;20489;-86
2023/06/30 09:35:21;;;;;;;1.50;0.80;;;25.70;76.30;;;;;;4971863;28;21017;-87
2023/06/30 09:37:49;;;;;;;1.50;0.90;;;25.30;74.80;;;;;;4964425;28;20493;-86
2023/06/30 09:40:30;;;;;;;1.47;0.90;;;25.30;75.90;;;;;;4963285;28;20557;-87
2023/06/30 09:42:59;;;;;;;1.40;0.80;;;25.20;76.10;;;;;;4956144;28;20469;-85
2023/06/30 09:51:34;;;;;;;1.50;1.10;;;25.30;73.30;;;;;;5000489;23;20551;-85
2023/06/30 10:00:04;;;;;;;1.43;0.80;;;26.30;73.80;;;;;;4969229;28;20468;-87
2023/06/30 10:03:19;;;;;;;1.47;0.80;;;26.40;72.70;;;;;;4975323;28;20477;-86
2023/06/30 10:05:53;;;;;;;1.40;0.80;;;26.40;72.20;;;;;;4974216;28;20465;-86
2023/06/30 10:08:54;;;;;;;1.47;0.80;;;26.50;69.90;;;;;;4980282;28;20929;-87
2023/06/30 10:11:25;;;;;;;1.50;0.80;;;26.70;71.80;;;;;;4975929;28;20528;-84
2023/06/30 10:13:59;;;;;;;1.50;0.80;;;26.90;71.30;;;;;;4973780;28;21031;-84
2023/06/30 10:16:34;;;;;;;1.47;0.80;;;27.20;69.60;;;;;;4974693;28;20463;-84
2023/06/30 10:19:06;;;;;;;1.60;1.00;;;27.30;70.60;;;;;;4973837;28;20503;-86
2023/06/30 10:26:42;;;;;;;1.43;0.80;;;27.10;69.20;;;;;;4957226;28;20488;-87
2023/06/30 10:29:48;;;;;;;1.50;0.80;;;27.20;67.30;;;;;;4974455;28;20493;-84
2023/06/30 10:32:20;;;;;;;1.47;0.80;;;27.40;69.40;;;;;;4929664;28;20469;-83
2023/06/30 10:34:57;;;;;;;1.50;0.80;;;27.70;66.10;;;;;;4955296;28;20542;-87
2023/06/30 10:40:26;;;;;;;1.50;0.80;;;27.90;67.10;;;;;;4951446;28;20471;-85
2023/06/30 10:42:55;;;;;;;1.50;0.80;;;27.90;65.20;;;;;;4951089;28;20458;-85
2023/06/30 10:49:02;;;;;;;1.40;0.80;;;28.10;65.50;;;;;;4951488;28;20538;-84
2023/06/30 10:51:50;;;;;;;1.47;0.80;;;28.00;65.60;;;;;;4818798;29;20475;-85
2023/06/30 10:54:30;;;;;;;1.50;0.90;;;28.00;66.40;;;;;;4952047;28;21193;-87
2023/06/30 11:00:10;;;;;;;1.47;0.80;;;28.00;66.80;;;;;;4954526;28;20480;-86
2023/06/30 11:02:50;;;;;;;1.47;0.80;;;28.20;65.50;;;;;;4968883;28;20466;-86
2023/06/30 11:05:22;;;;;;;1.47;0.80;;;28.30;65.40;;;;;;4967229;28;20506;-86
2023/06/30 11:08:04;;;;;;;1.40;0.80;;;28.30;64.60;;;;;;4952300;28;20485;-85
2023/06/30 11:10:47;;;;;;;1.50;0.80;;;28.50;68.10;;;;;;4951659;28;20462;-84
2023/06/30 11:16:29;;;;;;;1.43;0.80;;;28.80;65.70;;;;;;4955281;28;20466;-85
2023/06/30 11:19:00;;;;;;;1.47;0.80;;;28.50;66.50;;;;;;4958134;28;20458;-85
2023/06/30 11:21:27;;;;;;;1.43;0.80;;;28.10;65.00;;;;;;4959061;28;20493;-84
2023/06/30 11:24:00;;;;;;;1.47;0.80;;;27.70;67.50;;;;;;4959537;28;20486;-84
2023/06/30 11:26:40;;;;;;;1.50;0.80;;;27.40;67.40;;;;;;4958629;29;20490;-86
2023/06/30 11:29:11;;;;;;;1.47;0.80;;;27.10;68.30;;;;;;4955406;28;20706;-85
2023/06/30 11:32:13;;;;;;;1.47;0.80;;;26.90;68.90;;;;;;4953066;28;20915;-87
2023/06/30 11:35:24;;;;;;;1.50;0.80;;;26.80;69.80;;;;;;5072091;23;20802;-86
2023/06/30 11:37:56;;;;;;;1.43;0.80;;;27.10;66.60;;;;;;4940651;28;20466;-84
2023/06/30 11:41:01;;;;;;;1.43;0.80;;;27.50;67.10;;;;;;4967344;28;20540;-87
2023/06/30 11:43:33;;;;;;;1.43;0.80;;;27.60;68.30;;;;;;4962214;28;20477;-86
2023/06/30 11:46:13;;;;;;;1.47;0.80;;;27.60;67.40;;;;;;4964802;28;20470;-87
2023/06/30 11:49:07;;;;;;;1.50;0.90;;;27.50;67.20;;;;;;4966462;28;20519;-86
2023/06/30 11:51:42;;;;;;;1.47;0.80;;;27.50;67.00;;;;;;4968842;28;20453;-87
2023/06/30 11:57:36;;;;;;;3.83;1.10;;;27.50;67.70;;;;;;4910148;29;20781;-88
2023/06/30 12:02:57;;;;;;;1.47;0.80;;;26.80;67.30;;;;;;4966080;28;20474;-85
2023/06/30 12:05:25;;;;;;;1.50;0.80;;;26.50;69.80;;;;;;4963066;28;20703;-86
2023/06/30 12:07:55;;;;;;;1.47;0.80;;;26.40;67.80;;;;;;4966436;28;20458;-85
2023/06/30 12:10:36;;;;;;;1.43;0.80;;;26.30;69.20;;;;;;4969020;28;20458;-86
2023/06/30 12:13:07;;;;;;;1.47;0.80;;;26.40;68.30;;;;;;4969384;28;20459;-86
2023/06/30 12:15:34;;;;;;;1.47;0.90;;;26.70;71.10;;;;;;4965713;28;20513;-84
2023/06/30 12:18:04;;;;;;;1.43;0.90;;;26.90;68.30;;;;;;4959139;28;20479;-85
2023/06/30 12:23:52;;;;;;;1.50;0.90;;;27.60;67.00;;;;;;4891997;29;20999;-85
2023/06/30 12:26:26;;;;;;;1.43;0.80;;;28.00;67.00;;;;;;4958231;28;20477;-84
2023/06/30 12:29:02;;;;;;;1.40;0.90;;;28.40;67.00;;;;;;4971843;28;20521;-86
2023/06/30 12:31:51;;;;;;;1.50;1.00;;;28.80;66.00;;;;;;4964815;28;20868;-87
2023/06/30 12:34:33;;;;;;;1.47;0.80;;;28.80;63.20;;;;;;4961402;28;20489;-85
2023/06/30 12:37:50;;;;;;;1.47;0.80;;;28.20;64.00;;;;;;4967445;28;20483;-85
2023/06/30 12:40:51;;;;;;;;;;;;;;;;;;;;;
2023/06/30 12:44:00;;;;;;;1.43;0.80;;;28.10;66.50;;;;;;4962256;28;20487;-86
2023/06/30 12:46:40;;;;;;;1.43;0.80;;;28.50;67.00;;;;;;4966569;28;20564;-87
2023/06/30 12:49:23;;;;;;;1.40;0.80;;;29.00;66.60;;;;;;4967746;28;20862;-85
2023/06/30 12:52:38;;;;;;;1.47;0.90;;;29.20;64.70;;;;;;4967870;28;20458;-85
2023/06/30 12:55:22;;;;;;;1.47;0.80;;;29.00;64.10;;;;;;4956926;28;20581;-85
2023/06/30 12:57:52;;;;;;;1.47;0.80;;;28.60;65.50;;;;;;4968022;28;20478;-88
2023/06/30 13:00:41;;;;;;;1.47;0.80;;;28.20;65.60;;;;;;4971218;28;20468;-84
2023/06/30 13:03:10;;;;;;;1.50;0.80;;;27.90;66.70;;;;;;4964396;28;20462;-86
2023/06/30 13:05:52;;;;;;;1.43;0.80;;;27.70;67.20;;;;;;4967363;28;20489;-87
2023/06/30 13:08:19;;;;;;;1.50;0.80;;;27.60;66.50;;;;;;4962896;28;20505;-84
2023/06/30 13:10:46;;;;;;;1.43;0.80;;;27.10;66.90;;;;;;4964090;28;20473;-86
2023/06/30 13:13:14;;;;;;;1.47;0.80;;;26.90;68.70;;;;;;4963155;28;20470;-86
2023/06/30 13:15:42;;;;;;;1.47;0.80;;;26.80;69.60;;;;;;4977303;28;20532;-86
2023/06/30 13:18:10;;;;;;;1.50;0.80;;;26.80;67.20;;;;;;5013781;23;20688;-81
2023/06/30 13:20:37;;;;;;;1.50;0.80;;;26.70;67.80;;;;;;4990458;28;20530;-81
2023/06/30 13:23:04;;;;;;;1.47;0.80;;;26.60;67.50;;;;;;5000386;28;20498;-81
2023/06/30 13:25:30;;;;;;;1.50;0.80;;;26.40;68.30;;;;;;4989893;28;20474;-80
2023/06/30 13:27:58;;;;;;;1.40;0.80;;;26.20;68.60;;;;;;4977069;28;20481;-81
2023/06/30 13:30:24;;;;;;;1.50;0.80;;;26.30;68.90;;;;;;4968775;28;20493;-81
2023/06/30 13:32:53;;;;;;;1.47;0.80;;;26.60;69.00;;;;;;4968429;28;20544;-81
2023/06/30 13:35:23;;;;;;;1.40;0.90;;;26.90;68.20;;;;;;4969191;28;20461;-83
2023/06/30 13:37:50;;;;;;;1.43;0.80;;;27.10;68.10;;;;;;4969282;28;21249;-81
2023/06/30 13:40:17;;;;;;;1.43;0.90;;;27.10;68.00;;;;;;4972422;28;20462;-81
2023/06/30 13:42:44;;;;;;;1.47;0.80;;;27.00;68.00;;;;;;4968129;28;20471;-79
2023/06/30 13:45:11;;;;;;;1.50;0.80;;;26.90;67.80;;;;;;4967766;28;20457;-80
2023/06/30 13:47:39;;;;;;;1.40;0.80;;;27.00;68.40;;;;;;4966167;28;20489;-80
2023/06/30 13:50:08;;;;;;;1.50;0.97;;;27.20;69.50;;;;;;4966023;28;20529;-80
2023/06/30 13:52:35;;;;;;;1.50;0.80;;;27.50;68.20;;;;;;4968438;28;20461;-81
2023/06/30 13:55:02;;;;;;;1.43;0.83;;;27.60;66.40;;;;;;4968232;28;20549;-81
2023/06/30 13:57:29;;;;;;;1.43;0.80;;;27.60;67.00;;;;;;4969071;28;20492;-81
2023/06/30 13:59:56;;;;;;;1.47;0.80;;;27.80;67.00;;;;;;4969037;28;20461;-81
2023/06/30 14:02:24;;;;;;;1.43;0.80;;;27.70;65.00;;;;;;4968522;28;20473;-81
2023/06/30 14:04:51;;;;;;;1.47;0.83;;;27.70;65.50;;;;;;4965351;28;20552;-80
2023/06/30 14:07:19;;;;;;;1.47;0.80;;;27.90;66.00;;;;;;4969832;28;20489;-81
2023/06/30 14:09:45;;;;;;;1.47;0.80;;;27.90;66.60;;;;;;4968983;28;20481;-81
2023/06/30 14:12:12;;;;;;;1.43;0.80;;;27.80;65.60;;;;;;4969209;28;20472;-80
2023/06/30 14:14:40;;;;;;;1.43;0.80;;;27.60;65.70;;;;;;4965842;28;20561;-81